createdAt,value
2022-10-11T00:00:49.641Z,97707.13
2022-10-11T00:03:17.966Z,97680.16
2022-10-11T00:05:45.757Z,97655.06
2022-10-11T00:08:18.398Z,97631.44
2022-10-11T00:10:46.207Z,97617.97
2022-10-11T00:13:14.055Z,97607.16
2022-10-11T00:15:41.874Z,97592.81
2022-10-11T00:18:09.750Z,97571.63
2022-10-11T00:20:37.787Z,97559.91
2022-10-11T00:23:05.526Z,97548.94
2022-10-11T00:25:34.941Z,97534.66
2022-10-11T00:28:03.009Z,97524.59
2022-10-11T00:30:30.821Z,97506.81
2022-10-11T00:32:58.870Z,97492.56
2022-10-11T00:35:27.216Z,97476.50
2022-10-11T00:37:57.693Z,97473.22
2022-10-11T00:40:25.511Z,97464.81
2022-10-11T00:42:55.053Z,97449.00
2022-10-11T00:45:59.772Z,97428.66
2022-10-11T00:48:32.240Z,97424.56
2022-10-11T00:51:03.361Z,97404.22
2022-10-11T00:53:33.495Z,97388.34
2022-10-11T00:56:08.951Z,97371.50
2022-10-11T00:58:39.678Z,97354.69
2022-10-11T01:01:09.320Z,97341.31
2022-10-11T01:03:41.717Z,97316.91
2022-10-11T01:06:10.333Z,97300.16
2022-10-11T01:08:39.746Z,97269.03
2022-10-11T01:11:07.951Z,97253.00
2022-10-11T01:13:51.543Z,97232.78
2022-10-11T01:16:28.601Z,97220.28
2022-10-11T01:19:12.886Z,97202.66
2022-10-11T01:21:48.904Z,97179.16
2022-10-11T01:24:32.328Z,97165.88
2022-10-11T01:27:31.836Z,97129.66
2022-10-11T01:30:17.304Z,97108.69
2022-10-11T01:32:51.920Z,97095.34
2022-10-11T01:35:27.645Z,97078.44
2022-10-11T01:38:00.696Z,97073.53
2022-10-11T01:40:35.915Z,97058.38
2022-10-11T01:43:05.665Z,97045.75
2022-10-11T01:45:36.819Z,97034.09
2022-10-11T01:48:07.081Z,97034.09
2022-10-11T01:50:40.245Z,97026.53
2022-10-11T01:53:41.450Z,97016.47
2022-10-11T01:56:23.102Z,97005.50
2022-10-11T01:59:12.833Z,97002.34
2022-10-11T02:01:53.270Z,96988.00
2022-10-11T02:04:29.984Z,96984.75
2022-10-11T02:07:00.511Z,96976.25
2022-10-11T02:09:35.180Z,96972.88
2022-10-11T02:12:07.583Z,96972.16
2022-10-11T02:14:39.996Z,96970.41
2022-10-11T02:17:13.993Z,96965.38
2022-10-11T02:19:45.685Z,96965.38
2022-10-11T02:22:18.597Z,96962.81
2022-10-11T02:24:49.560Z,96964.56
2022-10-11T02:27:22.769Z,96966.31
2022-10-11T02:29:54.676Z,96973.88
2022-10-11T02:32:26.601Z,96977.28
2022-10-11T02:34:56.712Z,96968.75
2022-10-11T02:37:31.546Z,96969.69
2022-10-11T02:40:06.459Z,96962.91
2022-10-11T02:42:40.013Z,96953.00
2022-10-11T02:45:14.342Z,96944.59
2022-10-11T02:47:44.805Z,96944.47
2022-10-11T02:50:13.627Z,96948.78
2022-10-11T02:52:41.705Z,96951.34
2022-10-11T02:55:10.820Z,96935.28
2022-10-11T02:57:39.579Z,96931.19
2022-10-11T03:00:09.071Z,96929.56
2022-10-11T03:02:36.975Z,96922.81
2022-10-11T03:05:07.554Z,96908.69
2022-10-11T03:07:35.327Z,96893.53
2022-10-11T03:10:03.202Z,96893.53
2022-10-11T03:12:31.018Z,96885.16
2022-10-11T03:14:58.855Z,96883.50
2022-10-11T03:17:41.782Z,96874.19
2022-10-11T03:20:12.151Z,96867.53
2022-10-11T03:22:40.837Z,96856.59
2022-10-11T03:25:09.334Z,96861.81
2022-10-11T03:27:37.123Z,96842.38
2022-10-11T03:30:06.500Z,96835.84
2022-10-11T03:32:34.238Z,96831.63
2022-10-11T03:35:03.280Z,96818.22
2022-10-11T03:37:32.465Z,96802.16
2022-10-11T03:40:01.365Z,96793.94
2022-10-11T03:42:29.386Z,96777.19
2022-10-11T03:44:57.207Z,96766.34
2022-10-11T03:47:25.003Z,96753.78
2022-10-11T03:49:52.973Z,96732.72
2022-10-11T03:52:20.747Z,96718.50
2022-10-11T03:54:49.979Z,96710.22
2022-10-11T03:57:17.701Z,96707.66
2022-10-11T03:59:46.969Z,96697.78
2022-10-11T04:02:14.968Z,96680.88
2022-10-11T04:04:42.798Z,96671.00
2022-10-11T04:07:10.777Z,96655.03
2022-10-11T04:09:38.650Z,96655.97
2022-10-11T04:12:08.407Z,96639.00
2022-10-11T04:14:36.231Z,96639.22
2022-10-11T04:17:04.082Z,96635.03
2022-10-11T04:19:31.812Z,96617.56
2022-10-11T04:21:59.630Z,96601.59
2022-10-11T04:24:27.472Z,96599.06
2022-10-11T04:26:55.360Z,96596.50
2022-10-11T04:29:27.726Z,96598.25
2022-10-11T04:31:59.374Z,96594.88
2022-10-11T04:34:27.161Z,96594.88
2022-10-11T04:36:55.074Z,96609.06
2022-10-11T04:39:22.870Z,96623.47
2022-10-11T04:41:50.750Z,96625.94
2022-10-11T04:44:18.566Z,96636.84
2022-10-11T04:46:47.840Z,96638.41
2022-10-11T04:49:15.643Z,96658.63
2022-10-11T04:51:43.446Z,96666.19
2022-10-11T04:54:11.295Z,96684.59
2022-10-11T04:56:39.027Z,96692.03
2022-10-11T04:59:06.980Z,96711.47
2022-10-11T05:01:34.936Z,96724.75
2022-10-11T05:04:04.771Z,96740.72
2022-10-11T05:06:32.820Z,96754.09
2022-10-11T05:09:01.238Z,96763.31
2022-10-11T05:11:29.337Z,96777.50
2022-10-11T05:13:57.513Z,96791.03
2022-10-11T05:16:25.371Z,96804.41
2022-10-11T05:18:53.249Z,96817.91
2022-10-11T05:21:24.828Z,96828.75
2022-10-11T05:23:55.751Z,96835.44
2022-10-11T05:26:24.026Z,96849.75
2022-10-11T05:28:52.377Z,96861.41
2022-10-11T05:31:20.487Z,96886.78
2022-10-11T05:33:48.635Z,96894.16
2022-10-11T05:36:16.721Z,96904.28
2022-10-11T05:38:46.047Z,96917.69
2022-10-11T05:41:15.936Z,96935.28
2022-10-11T05:43:46.323Z,96950.44
2022-10-11T05:46:14.301Z,96953.84
2022-10-11T05:48:42.106Z,96952.19
2022-10-11T05:51:10.904Z,96946.25
2022-10-11T05:53:39.419Z,96954.66
2022-10-11T05:56:19.036Z,96964.78
2022-10-11T05:58:47.002Z,96971.53
2022-10-11T06:01:19.811Z,96975.72
2022-10-11T06:03:47.802Z,96985.88
2022-10-11T06:06:15.712Z,96987.50
2022-10-11T06:08:44.301Z,96986.59
2022-10-11T06:11:16.463Z,96990.06
2022-10-11T06:13:44.868Z,96995.09
2022-10-11T06:16:13.465Z,97007.78
2022-10-11T06:18:41.589Z,97011.03
2022-10-11T06:21:09.407Z,97014.44
2022-10-11T06:23:37.237Z,97017.72
2022-10-11T06:26:08.543Z,97023.66
2022-10-11T06:28:38.933Z,97027.13
2022-10-11T06:31:07.806Z,97025.28
2022-10-11T06:33:37.744Z,97037.97
2022-10-11T06:36:08.391Z,97049.78
2022-10-11T06:38:41.003Z,97078.31
2022-10-11T06:41:13.743Z,97094.22
2022-10-11T06:43:43.174Z,97121.97
2022-10-11T06:46:11.524Z,97146.28
2022-10-11T06:48:40.992Z,97174.03
2022-10-11T06:51:08.860Z,97204.28
2022-10-11T06:56:30.803Z,97249.69
2022-10-11T06:59:00.964Z,97271.53
2022-10-11T07:01:28.915Z,97285.06
2022-10-11T07:03:58.706Z,97295.94
2022-10-11T07:06:28.837Z,97318.63
2022-10-11T07:08:57.439Z,97333.59
2022-10-11T07:11:27.259Z,97374.19
2022-10-11T07:13:56.856Z,97392.69
2022-10-11T07:16:26.599Z,97417.00
2022-10-11T07:19:00.133Z,97437.31
2022-10-11T07:21:29.940Z,97449.97
2022-10-11T07:24:03.532Z,97462.47
2022-10-11T07:26:38.151Z,97497.97
2022-10-11T07:29:09.433Z,97529.91
2022-10-11T07:31:41.442Z,97570.31
2022-10-11T07:34:09.373Z,97599.78
2022-10-11T07:36:37.631Z,97626.72
2022-10-11T07:39:07.464Z,97657.94
2022-10-11T07:41:35.518Z,97687.44
2022-10-11T07:44:03.615Z,97714.38
2022-10-11T07:46:31.817Z,97736.25
2022-10-11T07:49:01.008Z,97756.53
2022-10-11T07:51:28.824Z,97780.09
2022-10-11T07:53:58.236Z,97793.53
2022-10-11T07:56:27.835Z,97815.56
2022-10-11T07:58:57.747Z,97828.13
2022-10-11T08:01:26.747Z,97851.88
2022-10-11T08:03:56.747Z,97872.09
2022-10-11T08:06:31.566Z,97896.56
2022-10-11T08:09:01.004Z,97908.31
2022-10-11T08:11:31.278Z,97928.59
2022-10-11T08:14:00.678Z,97952.28
2022-10-11T08:16:28.543Z,97961.53
2022-10-11T08:18:57.063Z,97976.75
2022-10-11T08:21:26.848Z,97996.22
2022-10-11T08:23:54.741Z,98024.13
2022-10-11T08:26:23.128Z,98029.88
2022-10-11T08:28:51.119Z,98061.28
2022-10-11T08:31:18.931Z,98095.81
2022-10-11T08:33:46.783Z,98119.50
2022-10-11T08:36:14.617Z,98148.25
2022-10-11T08:38:43.836Z,98177.03
2022-10-11T08:41:38.001Z,98214.22
2022-10-11T08:44:18.517Z,98244.63
2022-10-11T08:46:51.717Z,98265.78
2022-10-11T08:49:27.760Z,98276.72
2022-10-11T08:52:02.513Z,98306.41
2022-10-11T08:54:38.976Z,98325.81
2022-10-11T08:57:08.071Z,98342.72
2022-10-11T08:59:42.798Z,98347.81
2022-10-11T09:02:22.693Z,98388.44
2022-10-11T09:04:55.061Z,98427.34
2022-10-11T09:07:36.633Z,98458.63
2022-10-11T09:10:36.864Z,98505.22
2022-10-11T09:13:18.454Z,98553.53
2022-10-11T09:15:55.274Z,98573.78
2022-10-11T09:18:42.707Z,98598.38
2022-10-11T09:21:20.761Z,98611.06
2022-10-11T09:24:07.820Z,98618.72
2022-10-11T09:26:43.829Z,98639.19
2022-10-11T09:29:18.725Z,98632.34
2022-10-11T09:31:49.901Z,98628.94
2022-10-11T09:34:17.768Z,98630.63
2022-10-11T09:36:54.200Z,98636.44
2022-10-11T09:39:31.177Z,98662.06
2022-10-11T09:42:02.720Z,98663.72
2022-10-11T09:44:33.881Z,98688.38
2022-10-11T09:47:02.042Z,98696.69
2022-10-11T09:49:34.961Z,98712.81
2022-10-11T09:52:05.104Z,98730.69
2022-10-11T09:54:42.608Z,98754.47
2022-10-11T09:57:22.016Z,98761.91
2022-10-11T10:00:02.829Z,98773.84
2022-10-11T10:02:44.969Z,98783.31
2022-10-11T10:05:19.333Z,98779.00
2022-10-11T10:08:04.243Z,98801.91
2022-10-11T10:10:38.606Z,98836.69
2022-10-11T10:13:22.779Z,98874.78
2022-10-11T10:15:53.555Z,98905.31
2022-10-11T10:18:25.257Z,98930.78
2022-10-11T10:20:54.921Z,98975.81
2022-10-11T10:23:25.649Z,99015.66
2022-10-11T10:26:09.807Z,99071.69
2022-10-11T10:28:39.413Z,99133.75
2022-10-11T10:31:22.383Z,99185.59
2022-10-11T10:33:53.398Z,99234.09
2022-10-11T10:36:25.303Z,99271.34
2022-10-11T10:39:01.040Z,99322.56
2022-10-11T10:41:29.693Z,99338.78
2022-10-11T10:44:01.199Z,99351.53
2022-10-11T10:46:42.885Z,99360.06
2022-10-11T10:52:29.740Z,99363.38
2022-10-11T10:55:05.343Z,99367.63
2022-10-11T10:57:41.929Z,99371.03
2022-10-11T11:00:19.153Z,99383.75
2022-10-11T11:02:54.754Z,99426.38
2022-10-11T11:05:33.841Z,99451.06
2022-10-11T11:08:13.215Z,99465.59
2022-10-11T11:10:52.437Z,99483.38
2022-10-11T11:13:29.645Z,99490.22
2022-10-11T11:16:07.236Z,99481.72
2022-10-11T11:18:43.455Z,99476.53
2022-10-11T11:21:39.100Z,99499.56
2022-10-11T11:24:18.075Z,99485.03
2022-10-11T11:26:52.954Z,99474.84
2022-10-11T11:29:41.139Z,99473.13
2022-10-11T11:32:29.531Z,99474.00
2022-10-11T11:35:02.249Z,99485.03
2022-10-11T11:37:35.380Z,99484.94
2022-10-11T11:40:15.420Z,99494.38
2022-10-11T11:42:47.284Z,99519.94
2022-10-11T11:45:20.467Z,99567.66
2022-10-11T11:47:55.959Z,99638.34
2022-10-11T11:50:28.552Z,99706.53
2022-10-11T11:53:04.646Z,99771.47
2022-10-11T11:55:39.890Z,99810.59
2022-10-11T11:58:18.584Z,99866.91
2022-10-11T12:00:57.741Z,99921.47
2022-10-11T12:03:37.987Z,99954.69
2022-10-11T12:06:29.562Z,100006.00
2022-10-11T12:09:04.165Z,100025.63
2022-10-11T12:11:43.144Z,100060.69
2022-10-11T12:14:27.521Z,100090.50
2022-10-11T12:17:19.515Z,100096.53
2022-10-11T12:20:14.460Z,100126.34
2022-10-11T12:22:55.482Z,100158.00
2022-10-11T12:25:44.931Z,100198.97
2022-10-11T12:29:01.622Z,100275.94
2022-10-11T12:31:31.541Z,100328.09
2022-10-11T12:34:21.811Z,100362.31
2022-10-11T12:36:51.932Z,100362.41
2022-10-11T12:39:52.789Z,100368.28
2022-10-11T12:42:28.109Z,100386.31
2022-10-11T12:45:32.192Z,100414.59
2022-10-11T12:48:38.512Z,100447.91
2022-10-11T12:51:36.654Z,100499.28
2022-10-11T12:54:36.963Z,100552.34
2022-10-11T12:57:28.455Z,100570.31
2022-10-11T13:00:08.211Z,100592.56
2022-10-11T13:02:42.595Z,100596.84
2022-10-11T13:05:23.530Z,100570.31
2022-10-11T13:07:52.866Z,100596.84
2022-10-11T13:10:26.090Z,100634.56
2022-10-11T13:12:55.172Z,100677.41
2022-10-11T13:15:24.365Z,100673.97
2022-10-11T13:17:54.172Z,100697.94
2022-10-11T13:20:25.641Z,100748.56
2022-10-11T13:22:55.582Z,100768.34
2022-10-11T13:25:27.745Z,100745.06
2022-10-11T13:27:59.377Z,100703.03
2022-10-11T13:30:30.637Z,100672.22
2022-10-11T13:32:59.714Z,100614.75
2022-10-11T13:35:32.630Z,100564.22
2022-10-11T13:38:00.956Z,100560.78
2022-10-11T13:40:31.224Z,100563.28
2022-10-11T13:42:59.740Z,100550.38
2022-10-11T13:45:30.524Z,100550.38
2022-10-11T13:47:58.687Z,100538.44
2022-10-11T13:50:31.870Z,100530.72
2022-10-11T13:53:02.245Z,100546.09
2022-10-11T13:55:34.650Z,100543.56
2022-10-11T13:58:04.261Z,100538.34
2022-10-11T14:00:35.870Z,100531.47
2022-10-11T14:03:06.852Z,100484.41
2022-10-11T14:05:41.186Z,100420.22
2022-10-11T14:08:22.885Z,100362.81
2022-10-11T14:10:57.187Z,100328.56
2022-10-11T14:13:31.678Z,100290.94
2022-10-11T14:16:02.870Z,100248.09
2022-10-11T14:18:41.324Z,100216.41
2022-10-11T14:21:25.538Z,100161.69
2022-10-11T14:23:54.851Z,100118.94
2022-10-11T14:26:25.282Z,100088.16
2022-10-11T14:28:58.982Z,100049.78
2022-10-11T14:31:31.001Z,100026.66
2022-10-11T14:33:59.682Z,100007.94
2022-10-11T14:36:27.878Z,100003.66
2022-10-11T14:38:55.764Z,99980.56
2022-10-11T14:41:25.193Z,99960.88
2022-10-11T14:43:56.283Z,99947.25
2022-10-11T14:46:26.218Z,99954.94
2022-10-11T14:48:56.019Z,99942.16
2022-10-11T14:51:28.620Z,99934.38
2022-10-11T14:53:56.610Z,99927.56
2022-10-11T14:56:25.750Z,99901.91
2022-10-11T14:58:53.559Z,99881.47
2022-10-11T15:01:21.515Z,99851.63
2022-10-11T15:03:49.356Z,99807.22
2022-10-11T15:06:20.455Z,99776.50
2022-10-11T15:08:48.799Z,99757.84
2022-10-11T15:11:17.921Z,99737.25
2022-10-11T15:13:47.674Z,99725.41
2022-10-11T15:16:42.264Z,99693.72
2022-10-11T15:19:14.956Z,99665.56
2022-10-11T15:21:42.959Z,99649.38
2022-10-11T15:24:10.786Z,99625.53
2022-10-11T15:26:38.634Z,99606.75
2022-10-11T15:29:11.212Z,99587.22
2022-10-11T15:31:39.379Z,99548.81
2022-10-11T15:34:07.533Z,99529.25
2022-10-11T15:36:35.396Z,99500.38
2022-10-11T15:39:03.275Z,99475.56
2022-10-11T15:41:31.151Z,99467.06
2022-10-11T15:43:58.932Z,99456.84
2022-10-11T15:46:28.200Z,99438.91
2022-10-11T15:48:55.992Z,99418.47
2022-10-11T15:51:23.965Z,99387.00
2022-10-11T15:53:51.763Z,99361.56
2022-10-11T15:56:19.719Z,99327.44
2022-10-11T15:58:48.091Z,99292.59
2022-10-11T16:01:18.660Z,99257.81
2022-10-11T16:03:49.816Z,99213.53
2022-10-11T16:06:17.701Z,99171.00
2022-10-11T16:08:45.670Z,99121.69
2022-10-11T16:11:13.800Z,99072.38
2022-10-11T16:13:41.843Z,99038.50
2022-10-11T16:16:10.928Z,99000.19
2022-10-11T16:18:38.958Z,98965.38
2022-10-11T16:21:10.680Z,98928.91
2022-10-11T16:23:39.243Z,98900.13
2022-10-11T16:26:09.402Z,98863.63
2022-10-11T16:28:38.342Z,98827.19
2022-10-11T16:31:09.898Z,98789.75
2022-10-11T16:33:48.016Z,98754.25
2022-10-11T16:36:40.516Z,98699.06
2022-10-11T16:39:11.991Z,98656.84
2022-10-11T16:41:40.082Z,98603.31
2022-10-11T16:44:08.501Z,98571.19
2022-10-11T16:46:36.332Z,98548.41
2022-10-11T16:49:05.034Z,98519.59
2022-10-11T16:51:34.594Z,98483.97
2022-10-11T16:54:02.561Z,98450.09
2022-10-11T16:56:30.341Z,98412.84
2022-10-11T16:58:58.167Z,98379.09
2022-10-11T17:01:26.790Z,98342.63
2022-10-11T17:03:55.651Z,98306.31
2022-10-11T17:06:23.961Z,98262.41
2022-10-11T17:08:53.464Z,98224.25
2022-10-11T17:11:22.624Z,98213.41
2022-10-11T17:13:53.219Z,98190.50
2022-10-11T17:16:21.978Z,98168.53
2022-10-11T17:18:50.106Z,98150.84
2022-10-11T17:21:20.102Z,98128.06
2022-10-11T17:23:49.134Z,98101.88
2022-10-11T17:26:20.332Z,98083.31
2022-10-11T17:28:48.758Z,98058.81
2022-10-11T17:31:16.755Z,98036.03
2022-10-11T17:33:44.697Z,98008.97
2022-10-11T17:36:23.744Z,97991.34
2022-10-11T17:38:52.760Z,97964.25
2022-10-11T17:41:22.168Z,97938.94
2022-10-11T17:43:49.909Z,97914.53
2022-10-11T17:46:18.821Z,97887.56
2022-10-11T17:48:46.700Z,97868.94
2022-10-11T17:51:17.128Z,97848.69
2022-10-11T17:53:45.323Z,97835.28
2022-10-11T17:56:15.492Z,97813.28
2022-10-11T17:58:45.217Z,97792.25
2022-10-11T18:01:15.646Z,97771.28
2022-10-11T18:03:44.386Z,97756.16
2022-10-11T18:06:14.944Z,97736.72
2022-10-11T18:08:43.176Z,97710.50
2022-10-11T18:11:12.846Z,97684.41
2022-10-11T18:13:43.195Z,97673.59
2022-10-11T18:16:13.570Z,97635.56
2022-10-11T18:18:43.764Z,97615.41
2022-10-11T18:21:12.157Z,97590.13
2022-10-11T18:23:40.276Z,97576.69
2022-10-11T18:26:13.097Z,97557.38
2022-10-11T18:28:41.798Z,97536.31
2022-10-11T18:31:14.142Z,97522.97
2022-10-11T18:33:43.109Z,97501.81
2022-10-11T18:36:13.393Z,97483.41
2022-10-11T18:38:46.572Z,97454.69
2022-10-11T18:41:16.649Z,97435.38
2022-10-11T18:43:50.865Z,97425.41
2022-10-11T18:46:21.670Z,97394.97
2022-10-11T18:48:54.541Z,97382.53
2022-10-11T18:51:23.965Z,97358.94
2022-10-11T18:53:53.006Z,97330.31
2022-10-11T18:56:24.302Z,97300.03
2022-10-11T18:58:54.664Z,97274.19
2022-10-11T19:01:25.932Z,97242.22
2022-10-11T19:03:56.533Z,97217.09
2022-10-11T19:06:27.358Z,97183.38
2022-10-11T19:08:57.449Z,97162.34
2022-10-11T19:11:25.578Z,97138.06
2022-10-11T19:13:57.364Z,97119.53
2022-10-11T19:16:29.411Z,97107.00
2022-10-11T19:18:58.483Z,97085.13
2022-10-11T19:21:26.601Z,97072.50
2022-10-11T19:23:56.626Z,97073.41
2022-10-11T19:26:28.879Z,97057.47
2022-10-11T19:28:59.069Z,97052.53
2022-10-11T19:31:29.352Z,97036.56
2022-10-11T19:33:58.149Z,97009.72
2022-10-11T19:36:26.652Z,96988.84
2022-10-11T19:38:56.689Z,96971.22
2022-10-11T19:41:26.376Z,96953.53
2022-10-11T19:43:55.050Z,96931.72
2022-10-11T19:46:44.503Z,96911.66
2022-10-11T19:49:15.753Z,96894.88
2022-10-11T19:51:43.884Z,96880.66
2022-10-11T19:54:14.681Z,96855.34
2022-10-11T19:56:43.640Z,96843.69
2022-10-11T19:59:12.902Z,96822.72
2022-10-11T20:01:41.151Z,96813.63
2022-10-11T20:04:27.538Z,96808.59
2022-10-11T20:07:04.839Z,96790.91
2022-10-11T20:09:32.701Z,96791.03
2022-10-11T20:12:00.603Z,96770.75
2022-10-11T20:14:28.386Z,96773.44
2022-10-11T20:16:56.236Z,96755.03
2022-10-11T20:19:30.372Z,96734.09
2022-10-11T20:21:58.845Z,96724.88
2022-10-11T20:24:32.530Z,96709.03
2022-10-11T20:27:01.489Z,96695.53
2022-10-11T20:29:29.364Z,96670.41
2022-10-11T20:31:58.851Z,96661.31
2022-10-11T20:34:27.581Z,96649.69
2022-10-11T20:36:55.448Z,96635.47
2022-10-11T20:39:23.620Z,96605.94
2022-10-11T20:41:52.825Z,96597.66
2022-10-11T20:44:20.634Z,96588.50
2022-10-11T20:46:48.506Z,96577.66
2022-10-11T20:49:16.407Z,96565.91
2022-10-11T20:51:44.364Z,96548.22
2022-10-11T20:54:12.551Z,96548.34
2022-10-11T20:56:40.668Z,96539.16
2022-10-11T20:59:11.408Z,96534.25
2022-10-11T21:01:41.326Z,96530.06
2022-10-11T21:04:17.319Z,96515.88
2022-10-11T21:06:45.276Z,96507.50
2022-10-11T21:09:16.416Z,96493.31
2022-10-11T21:11:45.365Z,96484.97
2022-10-11T21:14:14.623Z,96468.09
2022-10-11T21:16:42.554Z,96458.94
2022-10-11T21:19:13.825Z,96456.56
2022-10-11T21:21:41.977Z,96439.84
2022-10-11T21:24:10.055Z,96426.47
2022-10-11T21:26:38.051Z,96418.09
2022-10-11T21:29:05.876Z,96400.56
2022-10-11T21:32:03.859Z,96380.59
2022-10-11T21:34:31.850Z,96373.94
2022-10-11T21:37:00.549Z,96353.84
2022-10-11T21:39:28.348Z,96337.13
2022-10-11T21:41:56.256Z,96322.03
2022-10-11T21:44:24.125Z,96308.78
2022-10-11T21:47:06.604Z,96287.88
2022-10-11T21:49:37.510Z,96278.69
2022-10-11T21:52:05.877Z,96272.91
2022-10-11T21:54:33.658Z,96261.97
2022-10-11T21:57:01.761Z,96255.25
2022-10-11T21:59:29.603Z,96252.91
2022-10-11T22:02:01.674Z,96242.09
2022-10-11T22:06:37.104Z,96211.97
2022-10-11T22:09:05.748Z,96205.44
2022-10-11T22:11:33.864Z,96186.06
2022-10-11T22:14:02.091Z,96165.06
2022-10-11T22:16:29.855Z,96161.00
2022-10-11T22:18:57.723Z,96151.00
2022-10-11T22:21:25.553Z,96144.50
2022-10-11T22:23:55.983Z,96133.63
2022-10-11T22:26:25.897Z,96120.97
2022-10-11T22:28:54.189Z,96106.13
2022-10-11T22:31:22.649Z,96085.94
2022-10-11T22:33:53.828Z,96078.53
2022-10-11T22:36:24.157Z,96063.53
2022-10-11T22:38:54.669Z,96043.38
2022-10-11T22:41:22.630Z,96025.88
2022-10-11T22:43:50.775Z,96031.91
2022-10-11T22:46:18.901Z,96028.66
2022-10-11T22:48:46.790Z,96016.09
2022-10-11T22:51:14.673Z,96007.78
2022-10-11T22:53:42.757Z,95993.53
2022-10-11T22:56:12.035Z,95981.00
2022-10-11T22:58:39.871Z,95975.19
2022-10-11T23:01:09.506Z,95966.94
2022-10-11T23:03:37.778Z,95956.88
2022-10-11T23:06:05.896Z,95952.03
2022-10-11T23:08:33.732Z,95947.84
2022-10-11T23:11:04.386Z,95928.41
2022-10-11T23:13:33.864Z,95932.78
2022-10-11T23:16:06.995Z,95931.03
2022-10-11T23:18:35.117Z,95930.34
2022-10-11T23:21:03.127Z,95920.38
2022-10-11T23:23:31.175Z,95908.66
2022-10-11T23:26:04.051Z,95890.38
2022-10-11T23:28:33.270Z,95881.22
2022-10-11T23:31:01.420Z,95876.25
2022-10-11T23:33:29.862Z,95872.88
2022-10-11T23:35:58.301Z,95860.38
2022-10-11T23:38:26.071Z,95852.03
2022-10-11T23:40:53.871Z,95847.06
2022-10-11T23:43:21.724Z,95835.38
2022-10-11T23:45:51.219Z,95832.09
2022-10-11T23:48:18.993Z,95828.06
2022-10-11T23:50:46.992Z,95823.88
2022-10-11T23:53:14.886Z,95813.09
2022-10-11T23:55:43.383Z,95795.53
2022-10-11T23:58:11.197Z,95794.03
